Terminal Aerodrome Forecast
Issued by NWS Cleveland, OH

Home | Current Version | Previous Version | Graphics & Text | Print | Product List | Glossary On
Versions: 1 2 3 4 5 6 7 8 9 10 11 12 13 14 15 16 17 18
000
FTUS41 KCLE 270700 AAB
TAFYNG
TAF AMD
KYNG 270759Z 2708/2806 22005KT P6SM BKN030
     FM271000 29006KT 6SM BR SCT008 BKN018
     FM271200 34006KT P6SM BKN008
     FM271500 34006KT P6SM BKN015
     FM271800 35008KT P6SM SCT030
     FM280000 02005KT P6SM SCT250=

USA.gov is the U.S. government's official web portal to all federal, state and local government web resources and services.